Time;durP1;ratioP1;P1;durP2;ratioP2;P2;SDS_P1;SDS_P2;PMS_P1;PMS_P2;Temp;Humidity;BMP_temperature;BMP_pressure;BME280_temperature;BME280_humidity;BME280_pressure;Samples;Min_cycle;Max_cycle;Signal;HPM_P1;HPM_P2
2023/02/03 00:00:49;;;;;;;5.03;2.03;;;;;;;-146.47;100.00;65468.63;4707056;30;20139;-78
2023/02/03 00:04:29;;;;;;;7.18;2.30;;;;;;;-146.47;100.00;65468.63;4727547;30;20179;-78
2023/02/03 00:07:48;;;;;;;5.80;1.90;;;;;;;-146.47;100.00;65468.63;4715490;30;20550;-78
2023/02/03 00:10:14;;;;;;;6.97;2.58;;;;;;;-146.47;100.00;65468.63;4716363;30;20541;-78
2023/02/03 00:12:39;;;;;;;5.05;2.00;;;;;;;-146.47;100.00;65468.63;4717637;30;20049;-78
2023/02/03 00:16:05;;;;;;;9.52;2.15;;;;;;;-146.47;100.00;65468.63;4716372;30;20049;-78
2023/02/03 00:18:31;;;;;;;7.47;2.40;;;;;;;-146.47;100.00;65468.63;4715909;30;20056;-77
2023/02/03 00:20:57;;;;;;;3.63;1.83;;;;;;;-146.47;100.00;65468.63;4721976;30;20061;-77
2023/02/03 00:23:24;;;;;;;7.25;2.42;;;;;;;-146.47;100.00;65468.63;4730143;30;20045;-77
2023/02/03 00:25:51;;;;;;;4.00;2.08;;;;;;;-146.47;100.00;65468.63;4714489;30;20052;-77
2023/02/03 00:28:16;;;;;;;4.97;1.60;;;;;;;-146.47;100.00;65468.63;4716300;30;20133;-77
2023/02/03 00:30:42;;;;;;;4.35;2.00;;;;;;;-146.47;100.00;65468.63;4715166;30;20494;-77
2023/02/03 00:33:08;;;;;;;6.47;2.35;;;;;;;-146.47;100.00;65468.63;4716186;30;20049;-77
2023/02/03 00:35:38;;;;;;;5.45;1.90;;;;;;;-146.47;100.00;65468.63;4712780;30;20650;-77
2023/02/03 00:38:03;;;;;;;5.45;1.83;;;;;;;-146.47;100.00;65468.63;4716817;30;20418;-76
2023/02/03 00:40:29;;;;;;;5.55;1.90;;;;;;;-146.47;100.00;65468.63;4726390;30;20061;-76
2023/02/03 00:42:54;;;;;;;6.20;1.80;;;;;;;-146.47;100.00;65468.63;4711983;30;20088;-76
2023/02/03 00:45:21;;;;;;;1.95;1.45;;;;;;;-146.47;100.00;65468.63;4713078;30;20506;-76
2023/02/03 00:47:46;;;;;;;3.83;1.85;;;;;;;-146.47;100.00;65468.63;4714568;30;20107;-77
2023/02/03 00:50:12;;;;;;;5.18;2.38;;;;;;;-146.47;100.00;65468.63;4712061;30;20450;-77
2023/02/03 00:52:37;;;;;;;5.32;1.88;;;;;;;-146.47;100.00;65468.63;4712706;30;20045;-77
2023/02/03 00:55:04;;;;;;;5.97;1.95;;;;;;;-146.47;100.00;65468.63;4715071;30;20084;-77
2023/02/03 00:57:29;;;;;;;6.32;2.17;;;;;;;-146.47;100.00;65468.63;4714640;30;20099;-77
2023/02/03 00:59:56;;;;;;;6.28;2.30;;;;;;;-146.47;100.00;65468.63;4716730;30;20045;-77
2023/02/03 01:02:22;;;;;;;3.60;1.92;;;;;;;-146.47;100.00;65468.63;4715065;30;20107;-77
2023/02/03 01:04:48;;;;;;;5.72;2.10;;;;;;;-146.47;100.00;65468.63;4730607;30;20053;-77
2023/02/03 01:07:14;;;;;;;5.70;1.83;;;;;;;-146.47;100.00;65468.63;4715273;30;20048;-77
2023/02/03 01:09:40;;;;;;;5.80;2.08;;;;;;;-146.47;100.00;65468.63;4716408;30;20052;-77
2023/02/03 01:12:06;;;;;;;4.40;1.80;;;;;;;-146.47;100.00;65468.63;4715579;30;20107;-78
2023/02/03 01:14:31;;;;;;;5.28;1.98;;;;;;;-146.47;100.00;65468.63;4716045;30;20049;-77
2023/02/03 01:16:57;;;;;;;7.63;2.08;;;;;;;-146.47;100.00;65468.63;4728058;30;20068;-77
2023/02/03 01:19:23;;;;;;;3.28;1.55;;;;;;;-146.47;100.00;65468.63;4714364;30;20076;-77
2023/02/03 01:21:48;;;;;;;4.00;2.08;;;;;;;-146.47;100.00;65468.63;4714513;30;20060;-79
2023/02/03 01:24:14;;;;;;;4.18;2.20;;;;;;;-146.47;100.00;65468.63;4727949;30;20045;-78
2023/02/03 01:26:40;;;;;;;4.82;1.85;;;;;;;-146.47;100.00;65468.63;4711708;30;20061;-78
2023/02/03 01:29:07;;;;;;;3.25;1.80;;;;;;;-146.47;100.00;65468.63;4727855;30;20131;-79
2023/02/03 01:31:35;;;;;;;7.57;2.10;;;;;;;-146.47;100.00;65468.63;4711827;30;20075;-78
2023/02/03 01:34:02;;;;;;;5.47;2.15;;;;;;;-146.47;100.00;65468.63;4715700;30;20053;-78
2023/02/03 01:36:30;;;;;;;3.13;1.80;;;;;;;-146.47;100.00;65468.63;4714420;30;20048;-78
2023/02/03 01:38:56;;;;;;;4.65;1.88;;;;;;;-146.47;100.00;65468.63;4714245;30;20057;-78
2023/02/03 01:41:24;;;;;;;3.58;1.85;;;;;;;-146.47;100.00;65468.63;4726759;30;20045;-79
2023/02/03 01:43:52;;;;;;;3.15;1.63;;;;;;;-146.47;100.00;65468.63;4715392;30;20497;-78
2023/02/03 01:46:35;;;;;;;2.55;1.80;;;;;;;-146.47;100.00;65468.63;4711659;30;20050;-78
2023/02/03 01:49:26;;;;;;;5.03;1.83;;;;;;;-146.47;100.00;65468.63;4727422;30;20049;-78
2023/02/03 01:51:52;;;;;;;2.70;1.90;;;;;;;-146.47;100.00;65468.63;4707502;30;20140;-79
2023/02/03 01:54:24;;;;;;;5.97;2.20;;;;;;;-146.47;100.00;65468.63;4715826;30;20057;-78
2023/02/03 01:56:57;;;;;;;4.50;1.98;;;;;;;-146.47;100.00;65468.63;4713669;30;20053;-78
2023/02/03 01:59:24;;;;;;;2.70;1.83;;;;;;;-146.47;100.00;65468.63;4711732;30;20392;-78
2023/02/03 02:01:52;;;;;;;4.78;1.65;;;;;;;-146.47;100.00;65468.63;4715685;30;20056;-78
2023/02/03 02:04:21;;;;;;;3.28;1.63;;;;;;;-146.47;100.00;65468.63;4730345;30;20056;-78
2023/02/03 02:06:47;;;;;;;6.15;2.13;;;;;;;-146.47;100.00;65468.63;4719231;30;20427;-78
2023/02/03 02:09:14;;;;;;;4.43;1.80;;;;;;;-146.47;100.00;65468.63;4716914;30;20049;-79
2023/02/03 02:11:40;;;;;;;4.60;1.60;;;;;;;-146.47;100.00;65468.63;4716917;30;20110;-79
2023/02/03 02:14:06;;;;;;;3.95;1.60;;;;;;;-146.47;100.00;65468.63;4715418;30;20104;-79
2023/02/03 02:16:37;;;;;;;3.08;1.70;;;;;;;-146.47;100.00;65468.63;4718349;30;20045;-79
2023/02/03 02:19:15;;;;;;;6.35;1.92;;;;;;;-146.47;100.00;65468.63;4716648;30;20056;-78
2023/02/03 02:21:47;;;;;;;3.65;2.13;;;;;;;-146.47;100.00;65468.63;4705785;30;20115;-78
2023/02/03 02:24:50;;;;;;;4.60;1.65;;;;;;;-146.47;100.00;65468.63;4716899;30;20391;-78
2023/02/03 02:27:24;;;;;;;5.30;1.70;;;;;;;-146.47;100.00;65468.63;4712770;30;20064;-77
2023/02/03 02:29:56;;;;;;;;;;;;;;;-146.47;100.00;65468.63;4702487;30;20072;-79
2023/02/03 02:32:29;;;;;;;5.97;1.50;;;;;;;-146.47;100.00;65468.63;4716274;30;19927;-77
2023/02/03 02:35:07;;;;;;;4.25;1.73;;;;;;;-146.47;100.00;65468.63;4714648;30;20048;-77
2023/02/03 02:37:36;;;;;;;3.50;1.73;;;;;;;-146.47;100.00;65468.63;4712509;30;20131;-77
2023/02/03 02:40:24;;;;;;;5.32;2.67;;;;;;;-146.47;100.00;65468.63;4715046;30;20426;-77
2023/02/03 02:43:01;;;;;;;4.43;1.70;;;;;;;-146.47;100.00;65468.63;4715137;30;20056;-78
2023/02/03 02:45:36;;;;;;;5.55;2.20;;;;;;;-146.47;100.00;65468.63;4716795;30;20049;-77
2023/02/03 02:48:14;;;;;;;3.25;1.70;;;;;;;-146.47;100.00;65468.63;4729664;30;20129;-78
2023/02/03 02:50:43;;;;;;;4.72;1.88;;;;;;;-146.47;100.00;65468.63;4715168;30;20415;-77
2023/02/03 02:53:10;;;;;;;3.95;1.70;;;;;;;-146.47;100.00;65468.63;4730037;30;21541;-77
2023/02/03 02:55:39;;;;;;;10.52;2.28;;;;;;;-146.47;100.00;65468.63;4716333;30;20041;-78
2023/02/03 02:58:12;;;;;;;3.40;1.83;;;;;;;-146.47;100.00;65468.63;4715093;30;20053;-77
2023/02/03 03:00:40;;;;;;;5.15;1.85;;;;;;;-146.47;100.00;65468.63;4727383;30;20052;-77
2023/02/03 03:03:20;;;;;;;10.07;2.00;;;;;;;-146.47;100.00;65468.63;4715628;30;20102;-77
2023/02/03 03:05:52;;;;;;;5.65;1.85;;;;;;;-146.47;100.00;65468.63;4715797;30;20052;-78
2023/02/03 03:08:23;;;;;;;5.60;2.40;;;;;;;-146.47;100.00;65468.63;4710342;30;20112;-77
2023/02/03 03:10:51;;;;;;;7.18;2.00;;;;;;;-146.47;100.00;65468.63;4715033;30;20418;-78
2023/02/03 03:13:24;;;;;;;2.83;1.70;;;;;;;-146.47;100.00;65468.63;4715234;30;20045;-77
2023/02/03 03:15:52;;;;;;;4.75;2.03;;;;;;;-146.47;100.00;65468.63;4714706;30;20076;-78
2023/02/03 03:18:29;;;;;;;7.53;2.17;;;;;;;-146.47;100.00;65468.63;4716779;30;20045;-77
2023/02/03 03:21:04;;;;;;;5.55;2.05;;;;;;;-146.47;100.00;65468.63;4713369;30;20717;-77
2023/02/03 03:23:34;;;;;;;5.75;2.00;;;;;;;-146.47;100.00;65468.63;4715313;30;20072;-77
2023/02/03 03:26:10;;;;;;;6.05;2.10;;;;;;;-146.47;100.00;65468.63;4730302;30;20510;-77
2023/02/03 03:28:47;;;;;;;8.02;2.17;;;;;;;-146.47;100.00;65468.63;4715275;30;20062;-77
2023/02/03 03:31:15;;;;;;;6.55;2.00;;;;;;;-146.47;100.00;65468.63;4715971;30;20049;-78
2023/02/03 03:33:41;;;;;;;3.88;1.95;;;;;;;-146.47;100.00;65468.63;4713311;30;20061;-78
2023/02/03 03:36:21;;;;;;;2.10;1.45;;;;;;;-146.47;100.00;65468.63;4716527;30;20068;-78
2023/02/03 03:39:00;;;;;;;4.95;2.17;;;;;;;-146.47;100.00;65468.63;4714107;30;20524;-78
2023/02/03 03:41:50;;;;;;;5.80;1.85;;;;;;;-146.47;100.00;65468.63;4710100;30;20052;-78
2023/02/03 03:44:20;;;;;;;5.75;1.80;;;;;;;-146.47;100.00;65468.63;4717104;30;20045;-78
2023/02/03 03:46:53;;;;;;;4.07;2.00;;;;;;;-146.47;100.00;65468.63;4717956;30;20060;-78
2023/02/03 03:49:22;;;;;;;4.05;1.73;;;;;;;-146.47;100.00;65468.63;4714325;30;20049;-79
2023/02/03 03:51:55;;;;;;;4.05;2.28;;;;;;;-146.47;100.00;65468.63;4715880;30;20053;-78
2023/02/03 03:54:24;;;;;;;5.68;2.20;;;;;;;-146.47;100.00;65468.63;4710507;30;20106;-79
2023/02/03 03:57:04;;;;;;;5.22;2.08;;;;;;;-146.47;100.00;65468.63;4715719;30;20068;-79
2023/02/03 03:59:34;;;;;;;7.00;2.40;;;;;;;-146.47;100.00;65468.63;4715820;30;20056;-79
2023/02/03 04:02:03;;;;;;;6.93;2.30;;;;;;;-146.47;100.00;65468.63;4713809;30;20056;-78
2023/02/03 04:04:31;;;;;;;5.55;2.47;;;;;;;-146.47;100.00;65468.63;4715805;30;20049;-78
2023/02/03 04:06:56;;;;;;;4.70;1.90;;;;;;;-146.47;100.00;65468.63;4715677;30;20076;-78
2023/02/03 04:09:22;;;;;;;5.63;1.90;;;;;;;-146.47;100.00;65468.63;4711325;30;20499;-78
2023/02/03 04:12:00;;;;;;;8.70;2.58;;;;;;;-146.47;100.00;65468.63;4709934;30;20045;-80
2023/02/03 04:14:26;;;;;;;7.05;2.40;;;;;;;-146.47;100.00;65468.63;4714973;30;20110;-78
2023/02/03 04:16:51;;;;;;;12.65;2.63;;;;;;;-146.47;100.00;65468.63;4716703;30;20106;-78
2023/02/03 04:19:17;;;;;;;10.18;2.65;;;;;;;-146.47;100.00;65468.63;4726896;30;20514;-78
2023/02/03 04:21:43;;;;;;;8.43;2.03;;;;;;;-146.47;100.00;65468.63;4721454;30;20061;-78
2023/02/03 04:24:08;;;;;;;5.53;2.15;;;;;;;-146.47;100.00;65468.63;4712935;30;20434;-77
2023/02/03 04:26:34;;;;;;;4.88;2.10;;;;;;;-146.47;100.00;65468.63;4715947;30;20049;-78
2023/02/03 04:28:59;;;;;;;8.52;2.42;;;;;;;-146.47;100.00;65468.63;4725111;30;20438;-79
2023/02/03 04:31:26;;;;;;;5.32;2.30;;;;;;;-146.47;100.00;65468.63;4714638;30;20110;-79
2023/02/03 04:33:51;;;;;;;5.95;2.08;;;;;;;-146.47;100.00;65468.63;4714108;30;20465;-78
2023/02/03 04:36:17;;;;;;;7.30;2.45;;;;;;;-146.47;100.00;65468.63;4714186;30;20073;-79
2023/02/03 04:38:42;;;;;;;9.80;2.10;;;;;;;-146.47;100.00;65468.63;4730382;24;20332;-79
2023/02/03 04:41:08;;;;;;;5.13;2.35;;;;;;;-146.47;100.00;65468.63;4705583;30;20161;-78
2023/02/03 04:43:36;;;;;;;4.85;2.10;;;;;;;-146.47;100.00;65468.63;4703896;30;20533;-78
2023/02/03 04:46:01;;;;;;;6.28;2.08;;;;;;;-146.47;100.00;65468.63;4711957;30;20056;-79
2023/02/03 04:48:27;;;;;;;8.75;1.83;;;;;;;-146.47;100.00;65468.63;4713828;30;20041;-79
2023/02/03 04:50:52;;;;;;;4.97;1.75;;;;;;;-146.47;100.00;65468.63;4711583;30;20529;-79
2023/02/03 04:53:18;;;;;;;5.15;1.75;;;;;;;-146.47;100.00;65468.63;4705621;30;20057;-79
2023/02/03 04:55:48;;;;;;;4.25;3.10;;;;;;;-146.47;100.00;65468.63;4714079;30;20534;-79
2023/02/03 04:58:14;;;;;;;5.35;1.90;;;;;;;-146.47;100.00;65468.63;4714302;30;20418;-79
2023/02/03 05:00:40;;;;;;;3.75;1.90;;;;;;;-146.47;100.00;65468.63;4708369;30;20073;-79
2023/02/03 05:03:05;;;;;;;5.60;2.20;;;;;;;-146.47;100.00;65468.63;4701797;30;20053;-79
2023/02/03 05:05:31;;;;;;;7.32;2.28;;;;;;;-146.47;100.00;65468.63;4708542;30;20041;-80
2023/02/03 05:07:56;;;;;;;6.70;1.98;;;;;;;-146.47;100.00;65468.63;4709399;30;20422;-81
2023/02/03 05:10:22;;;;;;;7.82;2.22;;;;;;;-146.47;100.00;65468.63;4705430;30;20128;-79
2023/02/03 05:12:47;;;;;;;4.10;1.77;;;;;;;-146.47;100.00;65468.63;4706882;30;20075;-80
2023/02/03 05:15:13;;;;;;;4.93;2.15;;;;;;;-146.47;100.00;65468.63;4710909;30;20045;-80
2023/02/03 05:17:39;;;;;;;3.22;1.80;;;;;;;-146.47;100.00;65468.63;4708570;30;20053;-80
2023/02/03 05:20:06;;;;;;;8.65;2.03;;;;;;;-146.47;100.00;65468.63;4710773;30;20064;-80
2023/02/03 05:22:31;;;;;;;3.45;1.83;;;;;;;-146.47;100.00;65468.63;4709159;30;20521;-81
2023/02/03 05:24:57;;;;;;;4.70;2.20;;;;;;;-146.47;100.00;65468.63;4704181;30;20120;-80
2023/02/03 05:27:22;;;;;;;7.35;2.53;;;;;;;-146.47;100.00;65468.63;4706484;30;20530;-79
2023/02/03 05:29:48;;;;;;;2.42;1.60;;;;;;;-146.47;100.00;65468.63;4704626;30;20049;-80
2023/02/03 05:32:13;;;;;;;4.25;1.65;;;;;;;-146.47;100.00;65468.63;4699499;30;20053;-79
2023/02/03 05:34:39;;;;;;;5.65;2.08;;;;;;;-146.47;100.00;65468.63;4706838;30;20507;-80
2023/02/03 05:37:04;;;;;;;6.85;1.90;;;;;;;-146.47;100.00;65468.63;4709403;30;20477;-79
2023/02/03 05:39:30;;;;;;;5.68;1.80;;;;;;;-146.47;100.00;65468.63;4705569;30;20498;-78
2023/02/03 05:41:55;;;;;;;6.35;1.80;;;;;;;-146.47;100.00;65468.63;4727309;30;20060;-78
2023/02/03 05:44:24;;;;;;;5.60;1.75;;;;;;;-146.47;100.00;65468.63;4716160;30;20124;-78
2023/02/03 05:46:52;;;;;;;6.97;1.65;;;;;;;-146.47;100.00;65468.63;4702754;30;20057;-78
2023/02/03 05:49:24;;;;;;;4.63;1.80;;;;;;;-146.47;100.00;65468.63;4713991;30;20076;-77
2023/02/03 05:51:54;;;;;;;2.60;1.60;;;;;;;-146.47;100.00;65468.63;4715666;30;20083;-77
2023/02/03 05:54:20;;;;;;;3.80;1.58;;;;;;;-146.47;100.00;65468.63;4715729;30;20095;-78
2023/02/03 05:56:45;;;;;;;4.15;1.58;;;;;;;-146.47;100.00;65468.63;4712105;30;20430;-77
2023/02/03 05:59:11;;;;;;;3.53;1.75;;;;;;;-146.47;100.00;65468.63;4706107;30;20049;-78
2023/02/03 06:01:37;;;;;;;4.40;1.70;;;;;;;-146.47;100.00;65468.63;4712246;30;20052;-78
2023/02/03 06:04:03;;;;;;;3.78;1.50;;;;;;;-146.47;100.00;65468.63;4711118;30;20080;-78
2023/02/03 06:06:32;;;;;;;3.33;1.70;;;;;;;-146.47;100.00;65468.63;4717659;30;20085;-78
2023/02/03 06:09:06;;;;;;;4.40;1.75;;;;;;;-146.47;100.00;65468.63;4706300;30;20060;-78
2023/02/03 06:11:32;;;;;;;2.72;1.48;;;;;;;-146.47;100.00;65468.63;4712161;30;20042;-78
2023/02/03 06:13:59;;;;;;;1.83;1.15;;;;;;;-146.47;100.00;65468.63;4708723;30;20053;-78
2023/02/03 06:16:25;;;;;;;6.68;1.60;;;;;;;-146.47;100.00;65468.63;4713244;30;20045;-78
2023/02/03 06:18:53;;;;;;;3.67;1.92;;;;;;;-146.47;100.00;65468.63;4702969;30;20057;-78
2023/02/03 06:21:19;;;;;;;3.72;1.55;;;;;;;-146.47;100.00;65468.63;4710189;30;20102;-78
2023/02/03 06:23:45;;;;;;;3.65;1.20;;;;;;;-146.47;100.00;65468.63;4708248;30;20064;-77
2023/02/03 06:26:11;;;;;;;7.28;1.65;;;;;;;-146.47;100.00;65468.63;4699650;30;20050;-77
2023/02/03 06:28:39;;;;;;;3.17;1.30;;;;;;;-146.47;100.00;65468.63;4711475;30;20395;-77
2023/02/03 06:31:05;;;;;;;2.88;1.52;;;;;;;-146.47;100.00;65468.63;4707002;30;20447;-77
2023/02/03 06:33:32;;;;;;;3.22;1.45;;;;;;;-146.47;100.00;65468.63;4712888;30;20045;-77
2023/02/03 06:35:57;;;;;;;1.85;1.20;;;;;;;-146.47;100.00;65468.63;4716245;30;20037;-77
2023/02/03 06:38:23;;;;;;;2.47;1.10;;;;;;;-146.47;100.00;65468.63;4709497;30;20108;-77
2023/02/03 06:40:49;;;;;;;2.60;1.60;;;;;;;-146.47;100.00;65468.63;4706103;30;20050;-77
2023/02/03 06:43:15;;;;;;;5.65;1.73;;;;;;;-146.47;100.00;65468.63;4716003;30;20041;-77
2023/02/03 06:45:43;;;;;;;4.03;2.10;;;;;;;-146.47;100.00;65468.63;4716757;30;20057;-77
2023/02/03 06:48:09;;;;;;;4.00;1.50;;;;;;;-146.47;100.00;65468.63;4712115;30;22118;-77
2023/02/03 06:50:34;;;;;;;2.95;1.20;;;;;;;-146.47;100.00;65468.63;4707140;30;20076;-77
2023/02/03 06:53:00;;;;;;;3.67;1.83;;;;;;;-146.47;100.00;65468.63;4710874;30;20060;-77
2023/02/03 06:55:26;;;;;;;2.75;1.35;;;;;;;-146.47;100.00;65468.63;4710488;30;20045;-79
2023/02/03 06:57:51;;;;;;;1.80;1.30;;;;;;;-146.47;100.00;65468.63;4715914;30;20053;-77
2023/02/03 07:00:18;;;;;;;2.40;1.60;;;;;;;-146.47;100.00;65468.63;4715791;30;20061;-78
2023/02/03 07:02:44;;;;;;;2.78;1.60;;;;;;;-146.47;100.00;65468.63;4713016;30;20056;-78
2023/02/03 07:05:10;;;;;;;4.38;1.63;;;;;;;-146.47;100.00;65468.63;4712617;30;20057;-73
2023/02/03 07:07:38;;;;;;;6.22;1.50;;;;;;;-146.47;100.00;65468.63;4707026;30;20051;-76
2023/02/03 07:10:04;;;;;;;7.55;1.55;;;;;;;-146.47;100.00;65468.63;4712858;30;20049;-78
2023/02/03 07:12:30;;;;;;;2.72;1.25;;;;;;;-146.47;100.00;65468.63;4710594;30;20053;-77
2023/02/03 07:14:56;;;;;;;1.42;1.00;;;;;;;-146.47;100.00;65468.63;4729725;30;20053;-77
2023/02/03 07:17:22;;;;;;;3.08;1.40;;;;;;;-146.47;100.00;65468.63;4709153;30;20045;-78
2023/02/03 07:19:47;;;;;;;1.48;1.25;;;;;;;-146.47;100.00;65468.63;4704604;30;20507;-78
2023/02/03 07:22:13;;;;;;;4.93;1.95;;;;;;;-146.47;100.00;65468.63;4713608;30;20053;-77
2023/02/03 07:24:38;;;;;;;6.63;1.40;;;;;;;-146.47;100.00;65468.63;4713708;30;20049;-78
2023/02/03 07:27:04;;;;;;;2.45;1.10;;;;;;;-146.47;100.00;65468.63;4715986;30;20049;-78
2023/02/03 07:29:29;;;;;;;4.07;1.20;;;;;;;-146.47;100.00;65468.63;4707888;30;20090;-77
2023/02/03 07:31:55;;;;;;;7.57;1.67;;;;;;;-146.47;100.00;65468.63;4712584;30;20109;-78
2023/02/03 07:34:21;;;;;;;1.40;0.85;;;;;;;-146.47;100.00;65468.63;4710621;30;20045;-78
2023/02/03 07:36:46;;;;;;;1.92;1.25;;;;;;;-146.47;100.00;65468.63;4716144;30;20647;-78
2023/02/03 07:39:12;;;;;;;2.88;1.17;;;;;;;-146.47;100.00;65468.63;4704809;30;20049;-77
2023/02/03 07:41:38;;;;;;;3.00;1.48;;;;;;;-146.47;100.00;65468.63;4708678;30;20136;-78
2023/02/03 07:44:04;;;;;;;3.40;1.40;;;;;;;-146.47;100.00;65468.63;4710949;30;20438;-79
2023/02/03 07:46:30;;;;;;;1.58;0.98;;;;;;;-146.47;100.00;65468.63;4728722;30;20052;-78
2023/02/03 07:48:55;;;;;;;3.22;1.10;;;;;;;-146.47;100.00;65468.63;4708217;30;20116;-78
2023/02/03 07:51:21;;;;;;;2.22;1.20;;;;;;;-146.47;100.00;65468.63;4704280;30;20080;-81
2023/02/03 07:53:46;;;;;;;1.05;0.80;;;;;;;-146.47;100.00;65468.63;4714254;30;20048;-80
2023/02/03 07:56:12;;;;;;;1.50;1.20;;;;;;;-146.47;100.00;65468.63;4714101;30;20051;-79
2023/02/03 07:58:37;;;;;;;1.65;1.10;;;;;;;-146.47;100.00;65468.63;4712181;30;20060;-78
2023/02/03 08:01:10;;;;;;;2.47;0.90;;;;;;;-146.47;100.00;65468.63;4707056;30;20054;-80
2023/02/03 08:03:36;;;;;;;2.13;1.23;;;;;;;-146.47;100.00;65468.63;4709051;30;20042;-77
2023/02/03 08:06:01;;;;;;;1.45;1.10;;;;;;;-146.47;100.00;65468.63;4706413;30;20100;-80
2023/02/03 08:08:27;;;;;;;2.00;1.08;;;;;;;-146.47;100.00;65468.63;4704626;30;20054;-83
2023/02/03 08:10:54;;;;;;;1.70;1.05;;;;;;;-146.47;100.00;65468.63;4706584;30;20084;-78
2023/02/03 08:13:20;;;;;;;1.70;0.93;;;;;;;-146.47;100.00;65468.63;4715683;30;20603;-78
2023/02/03 08:15:46;;;;;;;3.65;1.25;;;;;;;-146.47;100.00;65468.63;4716200;30;20080;-79
2023/02/03 08:18:11;;;;;;;1.75;1.05;;;;;;;-146.47;100.00;65468.63;4709734;30;20526;-79
2023/02/03 08:20:37;;;;;;;2.25;1.08;;;;;;;-146.47;100.00;65468.63;4706148;30;20518;-78
2023/02/03 08:23:03;;;;;;;2.33;1.02;;;;;;;-146.47;100.00;65468.63;4713441;30;20781;-78
2023/02/03 08:25:29;;;;;;;1.50;1.00;;;;;;;-146.47;100.00;65468.63;4709346;30;20064;-79
2023/02/03 08:27:54;;;;;;;1.20;1.10;;;;;;;-146.47;100.00;65468.63;4712773;30;20041;-78
2023/02/03 08:30:21;;;;;;;3.50;1.17;;;;;;;-146.47;100.00;65468.63;4706221;30;20136;-79
2023/02/03 08:32:46;;;;;;;2.63;1.13;;;;;;;-146.47;100.00;65468.63;4706980;30;20053;-79
2023/02/03 08:35:12;;;;;;;3.97;1.48;;;;;;;-146.47;100.00;65468.63;4712183;30;20048;-80
2023/02/03 08:37:37;;;;;;;2.40;1.35;;;;;;;-146.47;100.00;65468.63;4709806;30;20041;-78
2023/02/03 08:40:04;;;;;;;1.92;0.98;;;;;;;-146.47;100.00;65468.63;4708899;30;20069;-77
2023/02/03 08:42:30;;;;;;;4.10;1.40;;;;;;;-146.47;100.00;65468.63;4709423;30;20049;-79
2023/02/03 08:44:56;;;;;;;5.20;1.23;;;;;;;-146.47;100.00;65468.63;4709847;30;20080;-79
2023/02/03 08:47:21;;;;;;;2.25;1.23;;;;;;;-146.47;100.00;65468.63;4709279;30;20041;-81
2023/02/03 08:49:47;;;;;;;3.28;1.23;;;;;;;-146.47;100.00;65468.63;4700414;30;20070;-79
2023/02/03 08:52:13;;;;;;;1.95;1.13;;;;;;;-146.47;100.00;65468.63;4700702;30;20037;-81
2023/02/03 08:54:39;;;;;;;1.20;1.10;;;;;;;-146.47;100.00;65468.63;4705253;30;20045;-78
2023/02/03 08:57:05;;;;;;;3.30;1.10;;;;;;;-146.47;100.00;65468.63;4705538;30;20521;-81
2023/02/03 08:59:34;;;;;;;3.40;1.35;;;;;;;-146.47;100.00;65468.63;4719802;30;20115;-81
2023/02/03 09:02:02;;;;;;;3.80;1.55;;;;;;;-146.47;100.00;65468.63;4724514;30;20041;-77
2023/02/03 09:04:28;;;;;;;1.70;1.17;;;;;;;-146.47;100.00;65468.63;4709843;30;20487;-78
2023/02/03 09:06:53;;;;;;;5.25;1.13;;;;;;;-146.47;100.00;65468.63;4710915;30;20050;-78
2023/02/03 09:09:20;;;;;;;0.82;0.82;;;;;;;-146.47;100.00;65468.63;4705542;30;20049;-78
2023/02/03 09:11:45;;;;;;;1.88;1.02;;;;;;;-146.47;100.00;65468.63;4727367;30;20784;-79
2023/02/03 09:14:11;;;;;;;3.30;1.50;;;;;;;-146.47;100.00;65468.63;4707085;30;20120;-77
2023/02/03 09:16:37;;;;;;;5.50;1.38;;;;;;;-146.47;100.00;65468.63;4719250;30;20470;-78
2023/02/03 09:19:03;;;;;;;1.75;0.85;;;;;;;-146.47;100.00;65468.63;4704658;30;20049;-79
2023/02/03 09:21:28;;;;;;;3.55;1.20;;;;;;;-146.47;100.00;65468.63;4708721;30;20644;-82
2023/02/03 09:23:54;;;;;;;2.05;1.20;;;;;;;-146.47;100.00;65468.63;4707125;30;20506;-78
2023/02/03 09:26:20;;;;;;;3.42;0.70;;;;;;;-146.47;100.00;65468.63;4705561;30;20053;-77
2023/02/03 09:28:45;;;;;;;1.45;0.77;;;;;;;-146.47;100.00;65468.63;4702691;30;20049;-78
2023/02/03 09:31:18;;;;;;;2.78;1.08;;;;;;;-146.47;100.00;65468.63;4707302;30;20049;-78
2023/02/03 09:33:44;;;;;;;2.03;0.95;;;;;;;-146.47;100.00;65468.63;4707405;30;20053;-78
2023/02/03 09:36:10;;;;;;;2.70;1.17;;;;;;;-146.47;100.00;65468.63;4705068;30;20049;-76
2023/02/03 09:38:36;;;;;;;2.17;1.05;;;;;;;-146.47;100.00;65468.63;4704542;30;20430;-78
2023/02/03 09:41:23;;;;;;;2.83;1.20;;;;;;;-146.47;100.00;65468.63;4708113;30;20044;-77
2023/02/03 09:44:20;;;;;;;0.80;0.80;;;;;;;-146.47;100.00;65468.63;4710235;30;20052;-79
2023/02/03 09:46:54;;;;;;;1.73;0.88;;;;;;;-146.47;100.00;65468.63;4705272;30;20132;-77
2023/02/03 09:49:19;;;;;;;1.40;0.90;;;;;;;-146.47;100.00;65468.63;4709456;30;20049;-78
2023/02/03 09:52:04;;;;;;;3.17;1.17;;;;;;;-146.47;100.00;65468.63;4709044;30;20454;-78
2023/02/03 09:54:29;;;;;;;3.10;0.98;;;;;;;-146.47;100.00;65468.63;4709237;30;20469;-78
2023/02/03 09:56:59;;;;;;;1.95;1.13;;;;;;;-146.47;100.00;65468.63;4712424;30;20045;-78
2023/02/03 09:59:27;;;;;;;1.35;1.05;;;;;;;-146.47;100.00;65468.63;4709250;30;20056;-77
2023/02/03 10:02:00;;;;;;;1.38;1.00;;;;;;;-146.47;100.00;65468.63;4709884;30;20046;-77
2023/02/03 10:04:54;;;;;;;0.80;0.80;;;;;;;-146.47;100.00;65468.63;4726112;30;20422;-78
2023/02/03 10:07:40;;;;;;;3.05;1.35;;;;;;;-146.47;100.00;65468.63;4707720;30;20049;-78
2023/02/03 10:10:39;;;;;;;0.93;0.90;;;;;;;-146.47;100.00;65468.63;4704598;30;20676;-78
2023/02/03 10:13:35;;;;;;;2.65;0.90;;;;;;;-146.47;100.00;65468.63;4704960;30;20076;-78
2023/02/03 10:16:27;;;;;;;2.28;1.05;;;;;;;-146.47;100.00;65468.63;4705788;30;20050;-78
2023/02/03 10:18:55;;;;;;;1.73;1.13;;;;;;;-146.47;100.00;65468.63;4706876;30;20053;-77
2023/02/03 10:21:36;;;;;;;1.80;1.05;;;;;;;-146.47;100.00;65468.63;4709899;30;20082;-78
2023/02/03 10:24:08;;;;;;;1.20;0.88;;;;;;;-146.47;100.00;65468.63;4719220;30;20434;-78
2023/02/03 10:26:34;;;;;;;1.38;1.00;;;;;;;-146.47;100.00;65468.63;4713014;30;20056;-78
2023/02/03 10:29:15;;;;;;;1.45;1.10;;;;;;;-146.47;100.00;65468.63;4714823;30;20045;-78
2023/02/03 10:31:42;;;;;;;1.48;0.95;;;;;;;-146.47;100.00;65468.63;4726843;30;20064;-78
2023/02/03 10:34:13;;;;;;;2.10;1.15;;;;;;;-146.47;100.00;65468.63;4713646;30;20099;-77
2023/02/03 10:37:12;;;;;;;2.58;1.20;;;;;;;-146.47;100.00;65468.63;4713761;30;20049;-81
2023/02/03 10:39:50;;;;;;;6.15;1.20;;;;;;;-146.47;100.00;65468.63;4720207;30;20049;-81
2023/02/03 10:42:16;;;;;;;4.13;1.00;;;;;;;-146.47;100.00;65468.63;4711206;30;20052;-80
2023/02/03 10:44:49;;;;;;;1.23;1.00;;;;;;;-146.47;100.00;65468.63;4710678;30;20048;-78
2023/02/03 10:47:23;;;;;;;2.00;1.08;;;;;;;-146.47;100.00;65468.63;4708776;30;20049;-79
2023/02/03 10:49:55;;;;;;;3.50;1.50;;;;;;;-146.47;100.00;65468.63;4717034;30;20809;-80
2023/02/03 10:52:30;;;;;;;1.20;1.10;;;;;;;-146.47;100.00;65468.63;4709718;30;20120;-78
2023/02/03 10:54:58;;;;;;;2.58;1.20;;;;;;;-146.47;100.00;65468.63;4718692;30;20045;-82
2023/02/03 10:57:24;;;;;;;4.75;1.30;;;;;;;-146.47;100.00;65468.63;4703449;30;20045;-80
2023/02/03 10:59:50;;;;;;;4.20;1.30;;;;;;;-146.47;100.00;65468.63;4705306;30;21680;-78
2023/02/03 11:02:34;;;;;;;2.58;1.40;;;;;;;-146.47;100.00;65468.63;4702788;30;20049;-79
2023/02/03 11:05:15;;;;;;;3.27;1.10;;;;;;;-146.47;100.00;65468.63;4715281;30;20151;-78
2023/02/03 11:07:41;;;;;;;3.22;1.10;;;;;;;-146.47;100.00;65468.63;4712728;30;20083;-80
2023/02/03 11:10:37;;;;;;;1.52;1.00;;;;;;;-146.47;100.00;65468.63;4706587;30;20053;-78
2023/02/03 11:13:20;;;;;;;4.18;1.08;;;;;;;-146.47;100.00;65468.63;4713569;30;20057;-78
2023/02/03 11:15:59;;;;;;;1.73;1.10;;;;;;;-146.47;100.00;65468.63;4707862;30;20569;-77
2023/02/03 11:18:35;;;;;;;4.78;1.40;;;;;;;-146.47;100.00;65468.63;4710272;30;20053;-76
2023/02/03 11:21:15;;;;;;;6.43;1.27;;;;;;;-146.47;100.00;65468.63;4710768;30;20505;-78